sensor_id;sensor_type;location;lat;lon;timestamp;P1;durP1;ratioP1;P2;durP2;ratioP2
30723;SDS011;17473;52.286;20.930;2023-11-19T00:00:18;41.67;;;19.17;;
30723;SDS011;17473;52.286;20.930;2023-11-19T00:02:45;37.67;;;19.60;;
30723;SDS011;17473;52.286;20.930;2023-11-19T00:05:14;37.27;;;18.57;;
30723;SDS011;17473;52.286;20.930;2023-11-19T00:07:41;33.83;;;18.20;;
30723;SDS011;17473;52.286;20.930;2023-11-19T00:10:09;40.20;;;19.93;;
30723;SDS011;17473;52.286;20.930;2023-11-19T00:12:38;39.20;;;19.77;;
30723;SDS011;17473;52.286;20.930;2023-11-19T00:15:11;40.00;;;19.83;;
30723;SDS011;17473;52.286;20.930;2023-11-19T00:17:46;36.00;;;19.87;;
30723;SDS011;17473;52.286;20.930;2023-11-19T00:20:19;37.00;;;19.23;;
30723;SDS011;17473;52.286;20.930;2023-11-19T00:22:48;43.37;;;20.67;;
30723;SDS011;17473;52.286;20.930;2023-11-19T00:25:18;40.17;;;20.43;;
30723;SDS011;17473;52.286;20.930;2023-11-19T00:27:46;44.13;;;19.83;;
30723;SDS011;17473;52.286;20.930;2023-11-19T00:30:14;39.73;;;19.83;;
30723;SDS011;17473;52.286;20.930;2023-11-19T00:32:42;38.20;;;20.03;;
30723;SDS011;17473;52.286;20.930;2023-11-19T00:35:09;38.70;;;20.73;;
30723;SDS011;17473;52.286;20.930;2023-11-19T00:37:36;40.90;;;21.37;;
30723;SDS011;17473;52.286;20.930;2023-11-19T00:40:04;43.33;;;20.73;;
30723;SDS011;17473;52.286;20.930;2023-11-19T00:42:32;33.60;;;18.90;;
30723;SDS011;17473;52.286;20.930;2023-11-19T00:44:59;41.40;;;21.47;;
30723;SDS011;17473;52.286;20.930;2023-11-19T00:47:28;37.27;;;19.70;;
30723;SDS011;17473;52.286;20.930;2023-11-19T00:49:57;44.70;;;21.27;;
30723;SDS011;17473;52.286;20.930;2023-11-19T00:52:24;42.83;;;21.23;;
30723;SDS011;17473;52.286;20.930;2023-11-19T00:54:52;38.90;;;19.73;;
30723;SDS011;17473;52.286;20.930;2023-11-19T00:57:20;42.50;;;21.60;;
30723;SDS011;17473;52.286;20.930;2023-11-19T00:59:47;42.27;;;21.77;;
30723;SDS011;17473;52.286;20.930;2023-11-19T01:02:14;43.93;;;21.83;;
30723;SDS011;17473;52.286;20.930;2023-11-19T01:04:41;42.80;;;22.13;;
30723;SDS011;17473;52.286;20.930;2023-11-19T01:07:08;41.93;;;22.67;;
30723;SDS011;17473;52.286;20.930;2023-11-19T01:09:41;40.47;;;21.17;;
30723;SDS011;17473;52.286;20.930;2023-11-19T01:12:09;45.83;;;21.80;;
30723;SDS011;17473;52.286;20.930;2023-11-19T01:14:37;40.30;;;21.87;;
30723;SDS011;17473;52.286;20.930;2023-11-19T01:17:04;41.60;;;22.10;;
30723;SDS011;17473;52.286;20.930;2023-11-19T01:19:32;45.67;;;22.73;;
30723;SDS011;17473;52.286;20.930;2023-11-19T01:21:59;48.60;;;23.23;;
30723;SDS011;17473;52.286;20.930;2023-11-19T01:24:26;42.13;;;21.73;;
30723;SDS011;17473;52.286;20.930;2023-11-19T01:26:55;45.37;;;23.27;;
30723;SDS011;17473;52.286;20.930;2023-11-19T01:29:24;47.57;;;22.57;;
30723;SDS011;17473;52.286;20.930;2023-11-19T01:31:51;45.07;;;22.97;;
30723;SDS011;17473;52.286;20.930;2023-11-19T01:34:19;49.73;;;23.30;;
30723;SDS011;17473;52.286;20.930;2023-11-19T01:36:46;45.73;;;23.07;;
30723;SDS011;17473;52.286;20.930;2023-11-19T01:39:15;46.90;;;23.50;;
30723;SDS011;17473;52.286;20.930;2023-11-19T01:41:43;44.13;;;21.63;;
30723;SDS011;17473;52.286;20.930;2023-11-19T01:44:10;45.70;;;23.53;;
30723;SDS011;17473;52.286;20.930;2023-11-19T01:46:40;46.43;;;22.23;;
30723;SDS011;17473;52.286;20.930;2023-11-19T01:49:10;45.90;;;23.47;;
30723;SDS011;17473;52.286;20.930;2023-11-19T01:51:39;45.37;;;23.20;;
30723;SDS011;17473;52.286;20.930;2023-11-19T01:54:08;49.33;;;24.07;;
30723;SDS011;17473;52.286;20.930;2023-11-19T01:56:36;50.87;;;24.70;;
30723;SDS011;17473;52.286;20.930;2023-11-19T01:59:07;54.63;;;26.93;;
30723;SDS011;17473;52.286;20.930;2023-11-19T02:01:35;49.13;;;24.13;;
30723;SDS011;17473;52.286;20.930;2023-11-19T02:04:07;49.90;;;24.30;;
30723;SDS011;17473;52.286;20.930;2023-11-19T02:06:36;48.60;;;24.50;;
30723;SDS011;17473;52.286;20.930;2023-11-19T02:09:07;49.30;;;23.67;;
30723;SDS011;17473;52.286;20.930;2023-11-19T02:11:34;47.93;;;24.20;;
30723;SDS011;17473;52.286;20.930;2023-11-19T02:14:02;49.50;;;23.77;;
30723;SDS011;17473;52.286;20.930;2023-11-19T02:16:33;53.33;;;27.03;;
30723;SDS011;17473;52.286;20.930;2023-11-19T02:19:00;55.43;;;24.83;;
30723;SDS011;17473;52.286;20.930;2023-11-19T02:21:28;50.40;;;25.47;;
30723;SDS011;17473;52.286;20.930;2023-11-19T02:23:55;47.77;;;24.23;;
30723;SDS011;17473;52.286;20.930;2023-11-19T02:29:34;49.80;;;25.63;;
30723;SDS011;17473;52.286;20.930;2023-11-19T02:32:01;53.17;;;25.70;;
30723;SDS011;17473;52.286;20.930;2023-11-19T02:34:29;54.33;;;24.53;;
30723;SDS011;17473;52.286;20.930;2023-11-19T02:36:57;51.70;;;24.13;;
30723;SDS011;17473;52.286;20.930;2023-11-19T02:39:24;51.20;;;25.30;;
30723;SDS011;17473;52.286;20.930;2023-11-19T02:41:52;53.47;;;26.47;;
30723;SDS011;17473;52.286;20.930;2023-11-19T02:44:19;60.13;;;29.80;;
30723;SDS011;17473;52.286;20.930;2023-11-19T02:46:47;54.73;;;27.00;;
30723;SDS011;17473;52.286;20.930;2023-11-19T02:49:15;56.67;;;25.97;;
30723;SDS011;17473;52.286;20.930;2023-11-19T02:51:42;58.00;;;28.23;;
30723;SDS011;17473;52.286;20.930;2023-11-19T02:54:09;57.20;;;26.97;;
30723;SDS011;17473;52.286;20.930;2023-11-19T02:56:36;54.27;;;26.40;;
30723;SDS011;17473;52.286;20.930;2023-11-19T02:59:05;60.10;;;27.20;;
30723;SDS011;17473;52.286;20.930;2023-11-19T03:01:41;52.03;;;26.87;;
30723;SDS011;17473;52.286;20.930;2023-11-19T03:04:10;51.70;;;25.93;;
30723;SDS011;17473;52.286;20.930;2023-11-19T03:06:38;59.60;;;27.87;;
30723;SDS011;17473;52.286;20.930;2023-11-19T03:09:05;52.43;;;26.30;;
30723;SDS011;17473;52.286;20.930;2023-11-19T03:11:36;55.63;;;28.10;;
30723;SDS011;17473;52.286;20.930;2023-11-19T03:14:04;58.20;;;27.10;;
30723;SDS011;17473;52.286;20.930;2023-11-19T03:16:31;54.17;;;27.47;;
30723;SDS011;17473;52.286;20.930;2023-11-19T03:18:59;58.17;;;29.20;;
30723;SDS011;17473;52.286;20.930;2023-11-19T03:21:30;53.73;;;27.00;;
30723;SDS011;17473;52.286;20.930;2023-11-19T03:24:00;60.43;;;28.77;;
30723;SDS011;17473;52.286;20.930;2023-11-19T03:26:27;55.17;;;27.87;;
30723;SDS011;17473;52.286;20.930;2023-11-19T03:28:54;60.60;;;28.33;;
30723;SDS011;17473;52.286;20.930;2023-11-19T03:31:23;56.77;;;28.37;;
30723;SDS011;17473;52.286;20.930;2023-11-19T03:33:51;59.57;;;29.43;;
30723;SDS011;17473;52.286;20.930;2023-11-19T03:36:20;52.30;;;27.70;;
30723;SDS011;17473;52.286;20.930;2023-11-19T03:38:47;51.70;;;27.80;;
30723;SDS011;17473;52.286;20.930;2023-11-19T03:41:15;53.60;;;28.00;;
30723;SDS011;17473;52.286;20.930;2023-11-19T03:43:43;56.03;;;27.87;;
30723;SDS011;17473;52.286;20.930;2023-11-19T03:46:20;52.27;;;26.53;;
30723;SDS011;17473;52.286;20.930;2023-11-19T03:48:48;58.60;;;27.57;;
30723;SDS011;17473;52.286;20.930;2023-11-19T03:51:16;50.33;;;25.80;;
30723;SDS011;17473;52.286;20.930;2023-11-19T03:53:46;56.37;;;27.47;;
30723;SDS011;17473;52.286;20.930;2023-11-19T03:56:13;50.80;;;24.27;;
30723;SDS011;17473;52.286;20.930;2023-11-19T03:58:41;53.27;;;25.67;;
30723;SDS011;17473;52.286;20.930;2023-11-19T04:01:11;49.33;;;25.83;;
30723;SDS011;17473;52.286;20.930;2023-11-19T04:03:42;50.43;;;23.57;;
30723;SDS011;17473;52.286;20.930;2023-11-19T04:06:12;46.07;;;22.40;;
30723;SDS011;17473;52.286;20.930;2023-11-19T04:08:39;43.33;;;21.67;;
30723;SDS011;17473;52.286;20.930;2023-11-19T04:11:06;43.33;;;23.60;;
30723;SDS011;17473;52.286;20.930;2023-11-19T04:13:35;48.17;;;23.80;;
30723;SDS011;17473;52.286;20.930;2023-11-19T04:16:02;44.10;;;22.67;;
30723;SDS011;17473;52.286;20.930;2023-11-19T04:18:30;41.43;;;21.60;;
30723;SDS011;17473;52.286;20.930;2023-11-19T04:20:58;45.53;;;23.77;;
30723;SDS011;17473;52.286;20.930;2023-11-19T04:23:25;45.03;;;20.80;;
30723;SDS011;17473;52.286;20.930;2023-11-19T04:25:52;39.57;;;20.30;;
30723;SDS011;17473;52.286;20.930;2023-11-19T04:28:19;40.90;;;20.37;;
30723;SDS011;17473;52.286;20.930;2023-11-19T04:30:47;44.17;;;21.70;;
30723;SDS011;17473;52.286;20.930;2023-11-19T04:33:14;40.77;;;20.43;;
30723;SDS011;17473;52.286;20.930;2023-11-19T04:35:41;42.17;;;20.83;;
30723;SDS011;17473;52.286;20.930;2023-11-19T04:38:08;42.83;;;21.87;;
30723;SDS011;17473;52.286;20.930;2023-11-19T04:40:35;40.73;;;20.13;;
30723;SDS011;17473;52.286;20.930;2023-11-19T04:43:02;38.27;;;18.97;;
30723;SDS011;17473;52.286;20.930;2023-11-19T04:45:30;44.17;;;21.50;;
30723;SDS011;17473;52.286;20.930;2023-11-19T04:47:58;39.67;;;20.60;;
30723;SDS011;17473;52.286;20.930;2023-11-19T04:50:25;39.13;;;21.33;;
30723;SDS011;17473;52.286;20.930;2023-11-19T04:52:53;37.40;;;19.90;;
30723;SDS011;17473;52.286;20.930;2023-11-19T04:55:25;39.80;;;20.47;;
30723;SDS011;17473;52.286;20.930;2023-11-19T04:57:53;41.93;;;20.47;;
30723;SDS011;17473;52.286;20.930;2023-11-19T05:00:21;41.77;;;20.93;;
30723;SDS011;17473;52.286;20.930;2023-11-19T05:02:49;38.43;;;19.90;;
30723;SDS011;17473;52.286;20.930;2023-11-19T05:05:16;41.00;;;20.00;;
30723;SDS011;17473;52.286;20.930;2023-11-19T05:07:44;35.53;;;19.27;;
30723;SDS011;17473;52.286;20.930;2023-11-19T05:10:11;41.97;;;21.37;;
30723;SDS011;17473;52.286;20.930;2023-11-19T05:12:38;37.37;;;20.07;;
30723;SDS011;17473;52.286;20.930;2023-11-19T05:15:06;37.30;;;19.50;;
30723;SDS011;17473;52.286;20.930;2023-11-19T05:17:33;34.90;;;19.97;;
30723;SDS011;17473;52.286;20.930;2023-11-19T05:20:00;37.13;;;20.03;;
30723;SDS011;17473;52.286;20.930;2023-11-19T05:22:27;34.83;;;18.63;;
30723;SDS011;17473;52.286;20.930;2023-11-19T05:24:55;34.30;;;18.30;;
30723;SDS011;17473;52.286;20.930;2023-11-19T05:27:22;30.53;;;16.67;;
30723;SDS011;17473;52.286;20.930;2023-11-19T05:29:50;31.33;;;17.00;;
30723;SDS011;17473;52.286;20.930;2023-11-19T05:32:17;30.73;;;16.40;;
30723;SDS011;17473;52.286;20.930;2023-11-19T05:34:44;30.03;;;17.30;;
30723;SDS011;17473;52.286;20.930;2023-11-19T05:37:14;27.97;;;15.87;;
30723;SDS011;17473;52.286;20.930;2023-11-19T05:39:41;28.50;;;15.00;;
30723;SDS011;17473;52.286;20.930;2023-11-19T05:42:08;34.87;;;18.87;;
30723;SDS011;17473;52.286;20.930;2023-11-19T05:44:36;32.10;;;17.63;;
30723;SDS011;17473;52.286;20.930;2023-11-19T05:47:06;32.77;;;16.87;;
30723;SDS011;17473;52.286;20.930;2023-11-19T05:49:34;37.30;;;18.97;;
30723;SDS011;17473;52.286;20.930;2023-11-19T05:52:01;32.17;;;17.33;;
30723;SDS011;17473;52.286;20.930;2023-11-19T05:54:30;30.47;;;16.60;;
30723;SDS011;17473;52.286;20.930;2023-11-19T05:56:58;31.53;;;17.07;;
30723;SDS011;17473;52.286;20.930;2023-11-19T05:59:25;32.47;;;17.47;;
30723;SDS011;17473;52.286;20.930;2023-11-19T06:01:52;31.60;;;16.63;;
30723;SDS011;17473;52.286;20.930;2023-11-19T06:04:19;32.13;;;17.70;;
30723;SDS011;17473;52.286;20.930;2023-11-19T06:06:47;32.17;;;16.43;;
30723;SDS011;17473;52.286;20.930;2023-11-19T06:09:14;36.57;;;18.30;;
30723;SDS011;17473;52.286;20.930;2023-11-19T06:11:41;32.80;;;18.27;;
30723;SDS011;17473;52.286;20.930;2023-11-19T06:14:08;34.57;;;17.37;;
30723;SDS011;17473;52.286;20.930;2023-11-19T06:16:35;37.80;;;18.57;;
30723;SDS011;17473;52.286;20.930;2023-11-19T06:19:03;37.03;;;17.87;;
30723;SDS011;17473;52.286;20.930;2023-11-19T06:21:30;31.10;;;16.40;;
30723;SDS011;17473;52.286;20.930;2023-11-19T06:23:58;34.37;;;16.50;;
30723;SDS011;17473;52.286;20.930;2023-11-19T06:26:25;31.80;;;15.40;;
30723;SDS011;17473;52.286;20.930;2023-11-19T06:28:53;32.90;;;16.90;;
30723;SDS011;17473;52.286;20.930;2023-11-19T06:31:20;33.57;;;16.47;;
30723;SDS011;17473;52.286;20.930;2023-11-19T06:33:48;27.57;;;15.03;;
30723;SDS011;17473;52.286;20.930;2023-11-19T06:36:15;30.53;;;16.60;;
30723;SDS011;17473;52.286;20.930;2023-11-19T06:38:45;29.90;;;16.57;;
30723;SDS011;17473;52.286;20.930;2023-11-19T06:41:12;27.30;;;15.50;;
30723;SDS011;17473;52.286;20.930;2023-11-19T06:43:39;27.30;;;14.87;;
30723;SDS011;17473;52.286;20.930;2023-11-19T06:46:14;28.83;;;14.47;;
30723;SDS011;17473;52.286;20.930;2023-11-19T06:48:43;24.67;;;12.77;;
30723;SDS011;17473;52.286;20.930;2023-11-19T06:51:11;22.43;;;13.20;;
30723;SDS011;17473;52.286;20.930;2023-11-19T06:53:38;22.03;;;13.13;;
30723;SDS011;17473;52.286;20.930;2023-11-19T06:56:23;25.10;;;13.10;;
30723;SDS011;17473;52.286;20.930;2023-11-19T06:58:50;23.07;;;12.03;;
30723;SDS011;17473;52.286;20.930;2023-11-19T07:01:18;23.43;;;12.67;;
30723;SDS011;17473;52.286;20.930;2023-11-19T07:03:46;22.33;;;11.83;;
30723;SDS011;17473;52.286;20.930;2023-11-19T07:06:14;19.37;;;11.07;;
30723;SDS011;17473;52.286;20.930;2023-11-19T07:08:41;20.37;;;11.43;;
30723;SDS011;17473;52.286;20.930;2023-11-19T07:11:11;18.80;;;11.27;;
30723;SDS011;17473;52.286;20.930;2023-11-19T07:13:41;17.87;;;10.77;;
30723;SDS011;17473;52.286;20.930;2023-11-19T07:16:08;18.00;;;10.33;;
30723;SDS011;17473;52.286;20.930;2023-11-19T07:18:39;20.13;;;10.97;;
30723;SDS011;17473;52.286;20.930;2023-11-19T07:21:06;20.00;;;11.37;;
30723;SDS011;17473;52.286;20.930;2023-11-19T07:23:36;18.23;;;10.27;;
30723;SDS011;17473;52.286;20.930;2023-11-19T07:26:04;16.10;;;9.87;;
30723;SDS011;17473;52.286;20.930;2023-11-19T07:28:34;18.73;;;10.37;;
30723;SDS011;17473;52.286;20.930;2023-11-19T07:31:01;19.30;;;10.40;;
30723;SDS011;17473;52.286;20.930;2023-11-19T07:33:29;17.67;;;10.27;;
30723;SDS011;17473;52.286;20.930;2023-11-19T07:35:57;17.23;;;9.90;;
30723;SDS011;17473;52.286;20.930;2023-11-19T07:38:24;14.83;;;9.03;;
30723;SDS011;17473;52.286;20.930;2023-11-19T07:40:51;17.80;;;10.23;;
30723;SDS011;17473;52.286;20.930;2023-11-19T07:43:22;14.63;;;9.37;;
30723;SDS011;17473;52.286;20.930;2023-11-19T07:45:49;15.33;;;9.13;;
30723;SDS011;17473;52.286;20.930;2023-11-19T07:48:16;13.20;;;8.40;;
30723;SDS011;17473;52.286;20.930;2023-11-19T07:50:49;11.15;;;8.00;;
30723;SDS011;17473;52.286;20.930;2023-11-19T07:53:16;12.73;;;8.67;;
30723;SDS011;17473;52.286;20.930;2023-11-19T07:55:43;12.67;;;8.17;;
30723;SDS011;17473;52.286;20.930;2023-11-19T07:58:11;16.07;;;9.23;;
30723;SDS011;17473;52.286;20.930;2023-11-19T08:00:38;16.57;;;10.27;;
30723;SDS011;17473;52.286;20.930;2023-11-19T08:03:06;13.77;;;9.27;;
30723;SDS011;17473;52.286;20.930;2023-11-19T08:05:34;15.63;;;9.00;;
30723;SDS011;17473;52.286;20.930;2023-11-19T08:08:02;13.63;;;9.07;;
30723;SDS011;17473;52.286;20.930;2023-11-19T08:10:29;14.77;;;9.20;;
30723;SDS011;17473;52.286;20.930;2023-11-19T08:12:56;15.43;;;9.50;;
30723;SDS011;17473;52.286;20.930;2023-11-19T08:15:24;14.07;;;9.10;;
30723;SDS011;17473;52.286;20.930;2023-11-19T08:17:53;14.90;;;9.80;;
30723;SDS011;17473;52.286;20.930;2023-11-19T08:20:21;16.93;;;10.30;;
30723;SDS011;17473;52.286;20.930;2023-11-19T08:22:49;16.60;;;10.33;;
30723;SDS011;17473;52.286;20.930;2023-11-19T08:25:16;16.30;;;9.33;;
30723;SDS011;17473;52.286;20.930;2023-11-19T08:27:44;14.27;;;9.77;;
30723;SDS011;17473;52.286;20.930;2023-11-19T08:30:12;15.67;;;9.67;;
30723;SDS011;17473;52.286;20.930;2023-11-19T08:32:39;15.83;;;10.20;;
30723;SDS011;17473;52.286;20.930;2023-11-19T08:35:07;16.73;;;10.37;;
30723;SDS011;17473;52.286;20.930;2023-11-19T08:37:34;15.60;;;10.23;;
30723;SDS011;17473;52.286;20.930;2023-11-19T08:40:03;14.53;;;9.33;;
30723;SDS011;17473;52.286;20.930;2023-11-19T08:42:31;16.37;;;10.50;;
30723;SDS011;17473;52.286;20.930;2023-11-19T08:44:58;16.67;;;10.73;;
30723;SDS011;17473;52.286;20.930;2023-11-19T08:47:25;15.60;;;9.73;;
30723;SDS011;17473;52.286;20.930;2023-11-19T08:49:52;18.53;;;10.43;;
30723;SDS011;17473;52.286;20.930;2023-11-19T08:52:23;17.57;;;11.00;;
30723;SDS011;17473;52.286;20.930;2023-11-19T08:54:50;15.73;;;9.63;;
30723;SDS011;17473;52.286;20.930;2023-11-19T08:57:17;17.97;;;10.43;;
30723;SDS011;17473;52.286;20.930;2023-11-19T08:59:44;17.27;;;10.87;;
30723;SDS011;17473;52.286;20.930;2023-11-19T09:02:12;16.67;;;9.90;;
30723;SDS011;17473;52.286;20.930;2023-11-19T09:04:39;16.00;;;10.77;;
30723;SDS011;17473;52.286;20.930;2023-11-19T09:07:07;17.63;;;10.77;;
30723;SDS011;17473;52.286;20.930;2023-11-19T09:09:36;18.90;;;10.10;;
30723;SDS011;17473;52.286;20.930;2023-11-19T09:12:03;17.03;;;10.27;;
30723;SDS011;17473;52.286;20.930;2023-11-19T09:14:30;15.03;;;9.73;;
30723;SDS011;17473;52.286;20.930;2023-11-19T09:16:58;15.30;;;9.63;;
30723;SDS011;17473;52.286;20.930;2023-11-19T09:19:25;16.47;;;9.43;;
30723;SDS011;17473;52.286;20.930;2023-11-19T09:21:53;14.70;;;9.20;;
30723;SDS011;17473;52.286;20.930;2023-11-19T09:24:20;16.70;;;9.97;;
30723;SDS011;17473;52.286;20.930;2023-11-19T09:26:47;17.37;;;10.33;;
30723;SDS011;17473;52.286;20.930;2023-11-19T09:29:15;17.97;;;10.50;;
30723;SDS011;17473;52.286;20.930;2023-11-19T09:31:43;15.43;;;9.47;;
30723;SDS011;17473;52.286;20.930;2023-11-19T09:34:10;16.60;;;10.10;;
30723;SDS011;17473;52.286;20.930;2023-11-19T09:36:37;18.53;;;10.47;;
30723;SDS011;17473;52.286;20.930;2023-11-19T09:39:05;17.43;;;9.53;;
30723;SDS011;17473;52.286;20.930;2023-11-19T09:41:34;15.50;;;9.83;;
30723;SDS011;17473;52.286;20.930;2023-11-19T09:44:02;24.10;;;10.73;;
30723;SDS011;17473;52.286;20.930;2023-11-19T09:46:29;18.80;;;10.90;;
30723;SDS011;17473;52.286;20.930;2023-11-19T09:48:57;19.20;;;10.70;;
30723;SDS011;17473;52.286;20.930;2023-11-19T09:51:25;16.33;;;10.70;;
30723;SDS011;17473;52.286;20.930;2023-11-19T09:53:53;17.30;;;11.03;;
30723;SDS011;17473;52.286;20.930;2023-11-19T09:56:21;22.13;;;10.80;;
30723;SDS011;17473;52.286;20.930;2023-11-19T09:58:49;18.50;;;11.70;;
30723;SDS011;17473;52.286;20.930;2023-11-19T10:01:16;18.80;;;10.90;;
30723;SDS011;17473;52.286;20.930;2023-11-19T10:03:54;20.90;;;12.30;;
30723;SDS011;17473;52.286;20.930;2023-11-19T10:06:22;18.37;;;11.10;;
30723;SDS011;17473;52.286;20.930;2023-11-19T10:08:53;17.77;;;10.87;;
30723;SDS011;17473;52.286;20.930;2023-11-19T10:11:20;20.00;;;11.07;;
30723;SDS011;17473;52.286;20.930;2023-11-19T10:13:47;18.73;;;11.73;;
30723;SDS011;17473;52.286;20.930;2023-11-19T10:16:15;18.77;;;11.50;;
30723;SDS011;17473;52.286;20.930;2023-11-19T10:18:48;18.57;;;11.17;;
30723;SDS011;17473;52.286;20.930;2023-11-19T10:21:19;22.67;;;12.40;;
30723;SDS011;17473;52.286;20.930;2023-11-19T10:23:50;21.37;;;12.37;;
30723;SDS011;17473;52.286;20.930;2023-11-19T10:26:20;19.63;;;11.33;;
30723;SDS011;17473;52.286;20.930;2023-11-19T10:28:48;18.53;;;11.50;;
30723;SDS011;17473;52.286;20.930;2023-11-19T10:31:16;21.23;;;11.63;;
30723;SDS011;17473;52.286;20.930;2023-11-19T10:33:45;19.53;;;11.30;;
30723;SDS011;17473;52.286;20.930;2023-11-19T10:36:14;21.03;;;12.00;;
30723;SDS011;17473;52.286;20.930;2023-11-19T10:38:41;20.73;;;11.67;;
30723;SDS011;17473;52.286;20.930;2023-11-19T10:41:26;19.97;;;11.83;;
30723;SDS011;17473;52.286;20.930;2023-11-19T10:43:58;17.10;;;10.73;;
30723;SDS011;17473;52.286;20.930;2023-11-19T10:49:07;21.07;;;12.00;;
30723;SDS011;17473;52.286;20.930;2023-11-19T10:51:35;21.83;;;11.97;;
30723;SDS011;17473;52.286;20.930;2023-11-19T10:54:03;19.13;;;11.67;;
30723;SDS011;17473;52.286;20.930;2023-11-19T10:56:33;23.77;;;12.13;;
30723;SDS011;17473;52.286;20.930;2023-11-19T10:59:01;20.93;;;11.47;;
30723;SDS011;17473;52.286;20.930;2023-11-19T11:01:48;17.40;;;11.03;;
30723;SDS011;17473;52.286;20.930;2023-11-19T11:04:22;17.57;;;11.33;;
30723;SDS011;17473;52.286;20.930;2023-11-19T11:06:54;19.50;;;11.20;;
30723;SDS011;17473;52.286;20.930;2023-11-19T11:09:22;18.97;;;11.83;;
30723;SDS011;17473;52.286;20.930;2023-11-19T11:11:50;21.37;;;11.90;;
30723;SDS011;17473;52.286;20.930;2023-11-19T11:14:19;22.93;;;11.07;;
30723;SDS011;17473;52.286;20.930;2023-11-19T11:16:48;18.37;;;11.07;;
30723;SDS011;17473;52.286;20.930;2023-11-19T11:19:17;18.20;;;11.10;;
30723;SDS011;17473;52.286;20.930;2023-11-19T11:21:49;19.87;;;12.13;;
30723;SDS011;17473;52.286;20.930;2023-11-19T11:24:45;18.73;;;11.57;;
30723;SDS011;17473;52.286;20.930;2023-11-19T11:27:40;18.73;;;11.53;;
30723;SDS011;17473;52.286;20.930;2023-11-19T11:30:55;21.47;;;12.53;;
30723;SDS011;17473;52.286;20.930;2023-11-19T11:33:56;20.07;;;11.27;;
30723;SDS011;17473;52.286;20.930;2023-11-19T11:39:34;21.83;;;12.53;;
30723;SDS011;17473;52.286;20.930;2023-11-19T11:45:07;25.07;;;13.57;;
30723;SDS011;17473;52.286;20.930;2023-11-19T11:58:26;23.47;;;12.07;;
30723;SDS011;17473;52.286;20.930;2023-11-19T12:00:58;21.00;;;12.83;;
30723;SDS011;17473;52.286;20.930;2023-11-19T12:03:28;24.67;;;13.40;;
30723;SDS011;17473;52.286;20.930;2023-11-19T12:05:57;19.50;;;12.40;;
30723;SDS011;17473;52.286;20.930;2023-11-19T12:08:26;25.43;;;13.90;;
30723;SDS011;17473;52.286;20.930;2023-11-19T12:10:55;22.87;;;13.43;;
30723;SDS011;17473;52.286;20.930;2023-11-19T12:13:26;22.20;;;12.80;;
30723;SDS011;17473;52.286;20.930;2023-11-19T12:16:21;20.97;;;12.97;;
30723;SDS011;17473;52.286;20.930;2023-11-19T12:18:49;24.33;;;12.67;;
30723;SDS011;17473;52.286;20.930;2023-11-19T12:21:29;25.67;;;12.50;;
30723;SDS011;17473;52.286;20.930;2023-11-19T12:23:58;21.33;;;12.27;;
30723;SDS011;17473;52.286;20.930;2023-11-19T12:26:34;20.50;;;12.67;;
30723;SDS011;17473;52.286;20.930;2023-11-19T12:29:05;22.27;;;12.87;;
30723;SDS011;17473;52.286;20.930;2023-11-19T12:31:35;23.27;;;13.63;;
30723;SDS011;17473;52.286;20.930;2023-11-19T12:34:06;22.80;;;12.63;;
30723;SDS011;17473;52.286;20.930;2023-11-19T12:36:39;22.50;;;12.67;;
30723;SDS011;17473;52.286;20.930;2023-11-19T12:39:07;21.70;;;11.73;;
30723;SDS011;17473;52.286;20.930;2023-11-19T12:41:48;21.37;;;12.77;;
30723;SDS011;17473;52.286;20.930;2023-11-19T12:44:17;21.47;;;11.83;;
30723;SDS011;17473;52.286;20.930;2023-11-19T12:46:44;23.63;;;13.13;;
30723;SDS011;17473;52.286;20.930;2023-11-19T12:49:11;23.43;;;13.63;;
30723;SDS011;17473;52.286;20.930;2023-11-19T12:51:39;21.63;;;12.57;;
30723;SDS011;17473;52.286;20.930;2023-11-19T12:54:06;22.87;;;12.50;;
30723;SDS011;17473;52.286;20.930;2023-11-19T12:56:33;22.77;;;13.07;;
30723;SDS011;17473;52.286;20.930;2023-11-19T12:59:09;22.80;;;12.93;;
30723;SDS011;17473;52.286;20.930;2023-11-19T13:01:39;23.93;;;12.57;;
30723;SDS011;17473;52.286;20.930;2023-11-19T13:04:17;23.23;;;12.60;;
30723;SDS011;17473;52.286;20.930;2023-11-19T13:06:45;24.27;;;12.60;;
30723;SDS011;17473;52.286;20.930;2023-11-19T13:09:30;18.37;;;11.70;;
30723;SDS011;17473;52.286;20.930;2023-11-19T13:11:58;21.57;;;12.93;;
30723;SDS011;17473;52.286;20.930;2023-11-19T13:14:35;20.33;;;12.47;;
30723;SDS011;17473;52.286;20.930;2023-11-19T13:17:04;22.63;;;12.53;;
30723;SDS011;17473;52.286;20.930;2023-11-19T13:19:32;21.50;;;12.43;;
30723;SDS011;17473;52.286;20.930;2023-11-19T13:21:59;20.43;;;12.23;;
30723;SDS011;17473;52.286;20.930;2023-11-19T13:24:26;22.40;;;12.17;;
30723;SDS011;17473;52.286;20.930;2023-11-19T13:26:53;20.73;;;13.03;;
30723;SDS011;17473;52.286;20.930;2023-11-19T13:29:22;22.03;;;13.50;;
30723;SDS011;17473;52.286;20.930;2023-11-19T13:31:49;21.90;;;11.70;;
30723;SDS011;17473;52.286;20.930;2023-11-19T13:34:16;25.53;;;14.07;;
30723;SDS011;17473;52.286;20.930;2023-11-19T13:36:43;25.17;;;12.53;;
30723;SDS011;17473;52.286;20.930;2023-11-19T13:39:11;22.27;;;13.13;;
30723;SDS011;17473;52.286;20.930;2023-11-19T13:41:38;21.53;;;12.90;;
30723;SDS011;17473;52.286;20.930;2023-11-19T13:44:06;24.30;;;14.33;;
30723;SDS011;17473;52.286;20.930;2023-11-19T13:46:33;21.40;;;12.60;;
30723;SDS011;17473;52.286;20.930;2023-11-19T13:49:00;24.03;;;14.00;;
30723;SDS011;17473;52.286;20.930;2023-11-19T13:51:27;20.37;;;12.73;;
30723;SDS011;17473;52.286;20.930;2023-11-19T13:53:54;24.83;;;13.77;;
30723;SDS011;17473;52.286;20.930;2023-11-19T13:56:21;25.27;;;13.87;;
30723;SDS011;17473;52.286;20.930;2023-11-19T13:58:49;24.07;;;13.23;;
30723;SDS011;17473;52.286;20.930;2023-11-19T14:01:16;22.00;;;13.17;;
30723;SDS011;17473;52.286;20.930;2023-11-19T14:03:43;28.43;;;14.57;;
30723;SDS011;17473;52.286;20.930;2023-11-19T14:06:10;25.77;;;14.33;;
30723;SDS011;17473;52.286;20.930;2023-11-19T14:08:39;26.37;;;14.97;;
30723;SDS011;17473;52.286;20.930;2023-11-19T14:11:06;26.93;;;14.23;;
30723;SDS011;17473;52.286;20.930;2023-11-19T14:13:33;29.17;;;15.03;;
30723;SDS011;17473;52.286;20.930;2023-11-19T14:16:00;26.20;;;14.90;;
30723;SDS011;17473;52.286;20.930;2023-11-19T14:18:28;27.53;;;14.87;;
30723;SDS011;17473;52.286;20.930;2023-11-19T14:20:55;25.47;;;14.10;;
30723;SDS011;17473;52.286;20.930;2023-11-19T14:23:22;33.43;;;15.30;;
30723;SDS011;17473;52.286;20.930;2023-11-19T14:25:50;27.43;;;14.93;;
30723;SDS011;17473;52.286;20.930;2023-11-19T14:28:17;25.80;;;15.37;;
30723;SDS011;17473;52.286;20.930;2023-11-19T14:30:45;29.90;;;15.20;;
30723;SDS011;17473;52.286;20.930;2023-11-19T14:33:14;35.10;;;15.70;;
30723;SDS011;17473;52.286;20.930;2023-11-19T14:35:41;29.23;;;15.63;;
30723;SDS011;17473;52.286;20.930;2023-11-19T14:38:08;28.20;;;15.87;;
30723;SDS011;17473;52.286;20.930;2023-11-19T14:40:36;29.67;;;16.37;;
30723;SDS011;17473;52.286;20.930;2023-11-19T14:43:06;30.73;;;16.50;;